sensor_id;sensor_type;location;lat;lon;timestamp;P1;durP1;ratioP1;P2;durP2;ratioP2
18793;SDS011;29610;49.022;12.114;2022-07-01T00:01:06;23.73;;;9.03;;
18793;SDS011;29610;49.022;12.114;2022-07-01T00:03:35;23.60;;;8.80;;
18793;SDS011;29610;49.022;12.114;2022-07-01T00:06:03;19.67;;;7.93;;
18793;SDS011;29610;49.022;12.114;2022-07-01T00:08:33;24.20;;;9.67;;
18793;SDS011;29610;49.022;12.114;2022-07-01T00:11:06;25.43;;;9.50;;
18793;SDS011;29610;49.022;12.114;2022-07-01T00:13:35;20.60;;;8.87;;
18793;SDS011;29610;49.022;12.114;2022-07-01T00:16:04;20.87;;;9.17;;
18793;SDS011;29610;49.022;12.114;2022-07-01T00:18:33;25.87;;;8.80;;
18793;SDS011;29610;49.022;12.114;2022-07-01T00:21:01;21.73;;;8.60;;
18793;SDS011;29610;49.022;12.114;2022-07-01T00:23:39;22.00;;;8.30;;
18793;SDS011;29610;49.022;12.114;2022-07-01T00:26:09;26.40;;;9.50;;
18793;SDS011;29610;49.022;12.114;2022-07-01T00:28:38;19.93;;;8.90;;
18793;SDS011;29610;49.022;12.114;2022-07-01T00:31:06;20.27;;;8.03;;
18793;SDS011;29610;49.022;12.114;2022-07-01T00:33:35;23.20;;;8.50;;
18793;SDS011;29610;49.022;12.114;2022-07-01T00:36:04;25.00;;;8.37;;
18793;SDS011;29610;49.022;12.114;2022-07-01T00:38:32;24.63;;;8.20;;
18793;SDS011;29610;49.022;12.114;2022-07-01T00:41:05;19.03;;;8.73;;
18793;SDS011;29610;49.022;12.114;2022-07-01T00:43:35;21.63;;;7.30;;
18793;SDS011;29610;49.022;12.114;2022-07-01T00:46:22;16.63;;;6.30;;
18793;SDS011;29610;49.022;12.114;2022-07-01T00:48:55;17.43;;;6.10;;
18793;SDS011;29610;49.022;12.114;2022-07-01T00:51:27;26.27;;;6.30;;
18793;SDS011;29610;49.022;12.114;2022-07-01T00:53:56;19.53;;;6.93;;
18793;SDS011;29610;49.022;12.114;2022-07-01T00:56:27;17.50;;;6.40;;
18793;SDS011;29610;49.022;12.114;2022-07-01T00:58:58;17.20;;;6.33;;
18793;SDS011;29610;49.022;12.114;2022-07-01T01:01:26;17.97;;;5.73;;
18793;SDS011;29610;49.022;12.114;2022-07-01T01:03:55;23.40;;;5.80;;
18793;SDS011;29610;49.022;12.114;2022-07-01T01:06:24;16.70;;;6.23;;
18793;SDS011;29610;49.022;12.114;2022-07-01T01:08:53;14.33;;;4.70;;
18793;SDS011;29610;49.022;12.114;2022-07-01T01:11:22;17.70;;;5.23;;
18793;SDS011;29610;49.022;12.114;2022-07-01T01:13:50;16.23;;;4.80;;
18793;SDS011;29610;49.022;12.114;2022-07-01T01:16:21;17.60;;;4.30;;
18793;SDS011;29610;49.022;12.114;2022-07-01T01:18:52;14.07;;;4.33;;
18793;SDS011;29610;49.022;12.114;2022-07-01T01:21:23;18.40;;;4.40;;
18793;SDS011;29610;49.022;12.114;2022-07-01T01:23:53;14.53;;;4.00;;
18793;SDS011;29610;49.022;12.114;2022-07-01T01:26:21;14.27;;;3.40;;
18793;SDS011;29610;49.022;12.114;2022-07-01T01:28:51;15.47;;;3.80;;
18793;SDS011;29610;49.022;12.114;2022-07-01T01:31:27;14.80;;;3.77;;
18793;SDS011;29610;49.022;12.114;2022-07-01T01:33:57;15.80;;;4.40;;
18793;SDS011;29610;49.022;12.114;2022-07-01T01:36:28;14.90;;;3.60;;
18793;SDS011;29610;49.022;12.114;2022-07-01T01:38:57;13.97;;;3.87;;
18793;SDS011;29610;49.022;12.114;2022-07-01T01:41:28;16.43;;;3.90;;
18793;SDS011;29610;49.022;12.114;2022-07-01T01:43:56;19.57;;;3.60;;
18793;SDS011;29610;49.022;12.114;2022-07-01T01:46:25;14.00;;;4.00;;
18793;SDS011;29610;49.022;12.114;2022-07-01T01:48:55;15.63;;;3.90;;
18793;SDS011;29610;49.022;12.114;2022-07-01T01:51:24;15.93;;;4.30;;
18793;SDS011;29610;49.022;12.114;2022-07-01T01:53:54;13.20;;;3.40;;
18793;SDS011;29610;49.022;12.114;2022-07-01T01:56:23;13.60;;;3.53;;
18793;SDS011;29610;49.022;12.114;2022-07-01T01:58:52;17.80;;;4.10;;
18793;SDS011;29610;49.022;12.114;2022-07-01T02:01:21;15.70;;;3.40;;
18793;SDS011;29610;49.022;12.114;2022-07-01T02:03:50;12.60;;;3.20;;
18793;SDS011;29610;49.022;12.114;2022-07-01T02:06:20;16.03;;;4.03;;
18793;SDS011;29610;49.022;12.114;2022-07-01T02:08:49;12.67;;;3.30;;
18793;SDS011;29610;49.022;12.114;2022-07-01T02:11:19;15.23;;;3.00;;
18793;SDS011;29610;49.022;12.114;2022-07-01T02:13:47;16.27;;;3.90;;
18793;SDS011;29610;49.022;12.114;2022-07-01T02:16:16;16.50;;;3.30;;
18793;SDS011;29610;49.022;12.114;2022-07-01T02:18:45;15.17;;;3.60;;
18793;SDS011;29610;49.022;12.114;2022-07-01T02:21:13;15.40;;;3.10;;
18793;SDS011;29610;49.022;12.114;2022-07-01T02:23:42;15.53;;;2.87;;
18793;SDS011;29610;49.022;12.114;2022-07-01T02:26:10;12.90;;;3.57;;
18793;SDS011;29610;49.022;12.114;2022-07-01T02:28:40;14.23;;;3.60;;
18793;SDS011;29610;49.022;12.114;2022-07-01T02:31:09;13.10;;;3.20;;
18793;SDS011;29610;49.022;12.114;2022-07-01T02:33:37;14.00;;;3.10;;
18793;SDS011;29610;49.022;12.114;2022-07-01T02:36:06;18.63;;;3.20;;
18793;SDS011;29610;49.022;12.114;2022-07-01T02:38:34;13.63;;;3.70;;
18793;SDS011;29610;49.022;12.114;2022-07-01T02:41:06;18.60;;;3.60;;
18793;SDS011;29610;49.022;12.114;2022-07-01T02:43:36;15.00;;;3.63;;
18793;SDS011;29610;49.022;12.114;2022-07-01T02:46:06;15.27;;;3.87;;
18793;SDS011;29610;49.022;12.114;2022-07-01T02:48:35;14.93;;;3.43;;
18793;SDS011;29610;49.022;12.114;2022-07-01T02:51:03;13.80;;;3.40;;
18793;SDS011;29610;49.022;12.114;2022-07-01T02:53:32;16.57;;;3.60;;
18793;SDS011;29610;49.022;12.114;2022-07-01T02:56:01;12.70;;;3.47;;
18793;SDS011;29610;49.022;12.114;2022-07-01T02:58:32;12.90;;;3.60;;
18793;SDS011;29610;49.022;12.114;2022-07-01T03:01:00;12.57;;;3.17;;
18793;SDS011;29610;49.022;12.114;2022-07-01T03:03:33;13.13;;;4.43;;
18793;SDS011;29610;49.022;12.114;2022-07-01T03:06:01;12.90;;;3.00;;
18793;SDS011;29610;49.022;12.114;2022-07-01T03:08:32;12.57;;;3.03;;
18793;SDS011;29610;49.022;12.114;2022-07-01T03:11:01;14.23;;;3.90;;
18793;SDS011;29610;49.022;12.114;2022-07-01T03:13:33;14.70;;;3.90;;
18793;SDS011;29610;49.022;12.114;2022-07-01T03:16:04;14.57;;;3.80;;
18793;SDS011;29610;49.022;12.114;2022-07-01T03:18:34;16.10;;;3.77;;
18793;SDS011;29610;49.022;12.114;2022-07-01T03:21:05;19.73;;;4.27;;
18793;SDS011;29610;49.022;12.114;2022-07-01T03:23:34;17.23;;;3.80;;
18793;SDS011;29610;49.022;12.114;2022-07-01T03:26:06;17.60;;;4.20;;
18793;SDS011;29610;49.022;12.114;2022-07-01T03:28:34;17.23;;;3.50;;
18793;SDS011;29610;49.022;12.114;2022-07-01T03:31:06;13.40;;;3.57;;
18793;SDS011;29610;49.022;12.114;2022-07-01T03:33:36;13.80;;;3.10;;
18793;SDS011;29610;49.022;12.114;2022-07-01T03:36:05;14.70;;;3.30;;
18793;SDS011;29610;49.022;12.114;2022-07-01T03:38:33;13.90;;;3.20;;
18793;SDS011;29610;49.022;12.114;2022-07-01T03:41:05;16.73;;;3.70;;
18793;SDS011;29610;49.022;12.114;2022-07-01T03:43:33;13.80;;;4.10;;
18793;SDS011;29610;49.022;12.114;2022-07-01T03:46:05;14.37;;;3.73;;
18793;SDS011;29610;49.022;12.114;2022-07-01T03:48:33;14.40;;;3.83;;
18793;SDS011;29610;49.022;12.114;2022-07-01T03:51:07;13.50;;;3.70;;
18793;SDS011;29610;49.022;12.114;2022-07-01T03:53:36;18.20;;;3.20;;
18793;SDS011;29610;49.022;12.114;2022-07-01T03:56:22;12.60;;;3.20;;
18793;SDS011;29610;49.022;12.114;2022-07-01T03:58:51;13.60;;;3.43;;
18793;SDS011;29610;49.022;12.114;2022-07-01T04:01:20;12.20;;;2.67;;
18793;SDS011;29610;49.022;12.114;2022-07-01T04:03:49;18.40;;;2.80;;
18793;SDS011;29610;49.022;12.114;2022-07-01T04:06:18;12.33;;;2.70;;
18793;SDS011;29610;49.022;12.114;2022-07-01T04:08:47;12.10;;;3.03;;
18793;SDS011;29610;49.022;12.114;2022-07-01T04:11:16;15.20;;;2.77;;
18793;SDS011;29610;49.022;12.114;2022-07-01T04:13:45;13.73;;;2.53;;
18793;SDS011;29610;49.022;12.114;2022-07-01T04:16:16;13.23;;;3.10;;
18793;SDS011;29610;49.022;12.114;2022-07-01T04:18:46;13.77;;;3.07;;
18793;SDS011;29610;49.022;12.114;2022-07-01T04:21:16;13.83;;;2.77;;
18793;SDS011;29610;49.022;12.114;2022-07-01T04:24:04;16.13;;;2.87;;
18793;SDS011;29610;49.022;12.114;2022-07-01T04:26:33;13.20;;;2.67;;
18793;SDS011;29610;49.022;12.114;2022-07-01T04:29:04;13.47;;;2.77;;
18793;SDS011;29610;49.022;12.114;2022-07-01T04:31:33;14.80;;;3.00;;
18793;SDS011;29610;49.022;12.114;2022-07-01T04:34:02;11.80;;;2.63;;
18793;SDS011;29610;49.022;12.114;2022-07-01T04:36:33;13.00;;;2.90;;
18793;SDS011;29610;49.022;12.114;2022-07-01T04:39:02;13.43;;;2.90;;
18793;SDS011;29610;49.022;12.114;2022-07-01T04:41:33;14.10;;;3.00;;
18793;SDS011;29610;49.022;12.114;2022-07-01T04:44:19;12.80;;;2.90;;
18793;SDS011;29610;49.022;12.114;2022-07-01T04:46:48;27.00;;;3.20;;
18793;SDS011;29610;49.022;12.114;2022-07-01T04:49:17;12.43;;;2.80;;
18793;SDS011;29610;49.022;12.114;2022-07-01T04:51:47;12.00;;;2.50;;
18793;SDS011;29610;49.022;12.114;2022-07-01T04:54:16;12.57;;;2.87;;
18793;SDS011;29610;49.022;12.114;2022-07-01T04:56:48;13.93;;;2.10;;
18793;SDS011;29610;49.022;12.114;2022-07-01T04:59:19;11.90;;;2.33;;
18793;SDS011;29610;49.022;12.114;2022-07-01T05:01:51;11.93;;;2.60;;
18793;SDS011;29610;49.022;12.114;2022-07-01T05:04:20;13.07;;;2.67;;
18793;SDS011;29610;49.022;12.114;2022-07-01T05:06:51;11.30;;;2.30;;
18793;SDS011;29610;49.022;12.114;2022-07-01T05:09:22;11.50;;;2.50;;
18793;SDS011;29610;49.022;12.114;2022-07-01T05:11:53;11.37;;;2.23;;
18793;SDS011;29610;49.022;12.114;2022-07-01T05:14:21;13.63;;;2.47;;
18793;SDS011;29610;49.022;12.114;2022-07-01T05:16:50;11.57;;;2.30;;
18793;SDS011;29610;49.022;12.114;2022-07-01T05:19:18;13.73;;;3.03;;
18793;SDS011;29610;49.022;12.114;2022-07-01T05:22:06;11.60;;;2.10;;
18793;SDS011;29610;49.022;12.114;2022-07-01T05:24:35;15.47;;;2.60;;
18793;SDS011;29610;49.022;12.114;2022-07-01T05:27:05;11.93;;;2.83;;
18793;SDS011;29610;49.022;12.114;2022-07-01T05:29:33;14.07;;;2.70;;
18793;SDS011;29610;49.022;12.114;2022-07-01T05:32:02;14.33;;;2.50;;
18793;SDS011;29610;49.022;12.114;2022-07-01T05:34:31;14.10;;;2.47;;
18793;SDS011;29610;49.022;12.114;2022-07-01T05:37:00;13.63;;;2.40;;
18793;SDS011;29610;49.022;12.114;2022-07-01T05:39:29;12.83;;;2.57;;
18793;SDS011;29610;49.022;12.114;2022-07-01T05:41:58;11.80;;;2.20;;
18793;SDS011;29610;49.022;12.114;2022-07-01T05:44:26;12.40;;;2.53;;
18793;SDS011;29610;49.022;12.114;2022-07-01T05:46:55;12.77;;;2.87;;
18793;SDS011;29610;49.022;12.114;2022-07-01T05:49:24;15.30;;;2.80;;
18793;SDS011;29610;49.022;12.114;2022-07-01T05:51:52;11.83;;;2.63;;
18793;SDS011;29610;49.022;12.114;2022-07-01T05:54:21;13.07;;;2.20;;
18793;SDS011;29610;49.022;12.114;2022-07-01T05:56:51;15.80;;;2.23;;
18793;SDS011;29610;49.022;12.114;2022-07-01T05:59:19;11.70;;;2.20;;
18793;SDS011;29610;49.022;12.114;2022-07-01T06:01:48;12.70;;;2.50;;
18793;SDS011;29610;49.022;12.114;2022-07-01T06:04:17;11.30;;;2.10;;
18793;SDS011;29610;49.022;12.114;2022-07-01T06:06:46;11.87;;;2.33;;
18793;SDS011;29610;49.022;12.114;2022-07-01T06:09:14;13.70;;;1.90;;
18793;SDS011;29610;49.022;12.114;2022-07-01T06:11:43;15.07;;;2.50;;
18793;SDS011;29610;49.022;12.114;2022-07-01T06:14:13;11.40;;;2.10;;
18793;SDS011;29610;49.022;12.114;2022-07-01T06:16:42;11.87;;;2.07;;
18793;SDS011;29610;49.022;12.114;2022-07-01T06:19:11;11.37;;;2.07;;
18793;SDS011;29610;49.022;12.114;2022-07-01T06:21:40;11.07;;;2.00;;
18793;SDS011;29610;49.022;12.114;2022-07-01T06:24:08;12.97;;;2.63;;
18793;SDS011;29610;49.022;12.114;2022-07-01T06:26:37;13.93;;;2.70;;
18793;SDS011;29610;49.022;12.114;2022-07-01T06:29:05;11.90;;;2.40;;
18793;SDS011;29610;49.022;12.114;2022-07-01T06:31:35;14.30;;;2.63;;
18793;SDS011;29610;49.022;12.114;2022-07-01T06:34:04;12.80;;;2.40;;
18793;SDS011;29610;49.022;12.114;2022-07-01T06:36:33;11.70;;;2.33;;
18793;SDS011;29610;49.022;12.114;2022-07-01T06:39:02;15.83;;;2.83;;
18793;SDS011;29610;49.022;12.114;2022-07-01T06:41:30;14.97;;;2.90;;
18793;SDS011;29610;49.022;12.114;2022-07-01T06:44:00;11.40;;;2.10;;
18793;SDS011;29610;49.022;12.114;2022-07-01T06:46:31;13.77;;;2.40;;
18793;SDS011;29610;49.022;12.114;2022-07-01T06:49:04;12.70;;;2.20;;
18793;SDS011;29610;49.022;12.114;2022-07-01T06:51:32;11.07;;;2.00;;
18793;SDS011;29610;49.022;12.114;2022-07-01T06:54:01;11.80;;;2.47;;
18793;SDS011;29610;49.022;12.114;2022-07-01T06:56:30;14.87;;;2.63;;
18793;SDS011;29610;49.022;12.114;2022-07-01T06:58:59;12.63;;;2.50;;
18793;SDS011;29610;49.022;12.114;2022-07-01T07:01:28;11.30;;;2.30;;
18793;SDS011;29610;49.022;12.114;2022-07-01T07:03:57;11.63;;;2.50;;
18793;SDS011;29610;49.022;12.114;2022-07-01T07:06:27;11.20;;;2.17;;
18793;SDS011;29610;49.022;12.114;2022-07-01T07:08:56;11.23;;;2.03;;
18793;SDS011;29610;49.022;12.114;2022-07-01T07:11:25;13.20;;;2.40;;
18793;SDS011;29610;49.022;12.114;2022-07-01T07:13:53;13.43;;;2.57;;
18793;SDS011;29610;49.022;12.114;2022-07-01T07:16:22;12.30;;;2.50;;
18793;SDS011;29610;49.022;12.114;2022-07-01T07:18:51;11.37;;;2.43;;
18793;SDS011;29610;49.022;12.114;2022-07-01T07:21:19;14.50;;;2.73;;
18793;SDS011;29610;49.022;12.114;2022-07-01T07:23:49;11.23;;;2.37;;
18793;SDS011;29610;49.022;12.114;2022-07-01T07:26:18;17.63;;;2.20;;
18793;SDS011;29610;49.022;12.114;2022-07-01T07:28:48;13.80;;;2.63;;
18793;SDS011;29610;49.022;12.114;2022-07-01T07:31:18;14.83;;;2.30;;
18793;SDS011;29610;49.022;12.114;2022-07-01T07:33:46;11.60;;;2.23;;
18793;SDS011;29610;49.022;12.114;2022-07-01T07:36:18;11.43;;;1.97;;
18793;SDS011;29610;49.022;12.114;2022-07-01T07:38:46;10.80;;;1.73;;
18793;SDS011;29610;49.022;12.114;2022-07-01T07:41:16;10.93;;;1.80;;
18793;SDS011;29610;49.022;12.114;2022-07-01T07:43:45;11.40;;;1.80;;
18793;SDS011;29610;49.022;12.114;2022-07-01T07:46:14;11.77;;;1.60;;
18793;SDS011;29610;49.022;12.114;2022-07-01T07:48:43;11.33;;;1.57;;
18793;SDS011;29610;49.022;12.114;2022-07-01T07:51:11;10.67;;;1.50;;
18793;SDS011;29610;49.022;12.114;2022-07-01T07:53:51;10.30;;;1.27;;
18793;SDS011;29610;49.022;12.114;2022-07-01T07:56:21;11.40;;;1.60;;
18793;SDS011;29610;49.022;12.114;2022-07-01T07:58:50;10.50;;;1.30;;
18793;SDS011;29610;49.022;12.114;2022-07-01T08:01:18;11.50;;;1.33;;
18793;SDS011;29610;49.022;12.114;2022-07-01T08:03:47;11.60;;;1.57;;
18793;SDS011;29610;49.022;12.114;2022-07-01T08:06:16;12.10;;;1.50;;
18793;SDS011;29610;49.022;12.114;2022-07-01T08:08:45;11.17;;;1.70;;
18793;SDS011;29610;49.022;12.114;2022-07-01T08:11:14;11.23;;;1.57;;
18793;SDS011;29610;49.022;12.114;2022-07-01T08:13:44;10.33;;;1.60;;
18793;SDS011;29610;49.022;12.114;2022-07-01T08:16:12;10.23;;;1.30;;
18793;SDS011;29610;49.022;12.114;2022-07-01T08:18:41;10.43;;;1.10;;
18793;SDS011;29610;49.022;12.114;2022-07-01T08:21:10;10.37;;;1.20;;
18793;SDS011;29610;49.022;12.114;2022-07-01T08:23:38;12.37;;;1.60;;
18793;SDS011;29610;49.022;12.114;2022-07-01T08:26:07;10.30;;;1.10;;
18793;SDS011;29610;49.022;12.114;2022-07-01T08:28:38;15.47;;;1.50;;
18793;SDS011;29610;49.022;12.114;2022-07-01T08:31:08;11.00;;;1.40;;
18793;SDS011;29610;49.022;12.114;2022-07-01T08:33:36;12.03;;;1.20;;
18793;SDS011;29610;49.022;12.114;2022-07-01T08:36:06;10.17;;;1.30;;
18793;SDS011;29610;49.022;12.114;2022-07-01T08:38:37;11.10;;;1.30;;
18793;SDS011;29610;49.022;12.114;2022-07-01T08:41:06;10.67;;;1.50;;
18793;SDS011;29610;49.022;12.114;2022-07-01T08:43:35;10.00;;;1.10;;
18793;SDS011;29610;49.022;12.114;2022-07-01T08:46:04;10.90;;;1.33;;
18793;SDS011;29610;49.022;12.114;2022-07-01T08:48:37;9.87;;;1.30;;
18793;SDS011;29610;49.022;12.114;2022-07-01T08:51:10;11.07;;;1.40;;
18793;SDS011;29610;49.022;12.114;2022-07-01T08:53:39;12.10;;;1.30;;
18793;SDS011;29610;49.022;12.114;2022-07-01T08:56:08;10.63;;;1.50;;
18793;SDS011;29610;49.022;12.114;2022-07-01T08:59:08;11.00;;;1.53;;
18793;SDS011;29610;49.022;12.114;2022-07-01T09:01:40;10.93;;;1.67;;
18793;SDS011;29610;49.022;12.114;2022-07-01T09:04:13;10.47;;;1.30;;
18793;SDS011;29610;49.022;12.114;2022-07-01T09:06:44;10.87;;;1.50;;
18793;SDS011;29610;49.022;12.114;2022-07-01T09:09:13;11.10;;;1.50;;
18793;SDS011;29610;49.022;12.114;2022-07-01T09:11:45;11.90;;;1.30;;
18793;SDS011;29610;49.022;12.114;2022-07-01T09:14:20;10.97;;;1.60;;
18793;SDS011;29610;49.022;12.114;2022-07-01T09:16:52;10.80;;;1.37;;
18793;SDS011;29610;49.022;12.114;2022-07-01T09:19:25;10.90;;;1.40;;
18793;SDS011;29610;49.022;12.114;2022-07-01T09:21:56;10.90;;;1.63;;
18793;SDS011;29610;49.022;12.114;2022-07-01T09:24:27;11.50;;;1.30;;
18793;SDS011;29610;49.022;12.114;2022-07-01T09:26:58;10.67;;;1.30;;
18793;SDS011;29610;49.022;12.114;2022-07-01T09:29:30;11.43;;;1.50;;
18793;SDS011;29610;49.022;12.114;2022-07-01T09:32:02;10.70;;;1.30;;
18793;SDS011;29610;49.022;12.114;2022-07-01T09:34:34;10.50;;;1.27;;
18793;SDS011;29610;49.022;12.114;2022-07-01T09:37:07;10.10;;;1.10;;
18793;SDS011;29610;49.022;12.114;2022-07-01T09:39:42;14.90;;;1.20;;
18793;SDS011;29610;49.022;12.114;2022-07-01T09:42:12;11.53;;;1.30;;
18793;SDS011;29610;49.022;12.114;2022-07-01T09:44:54;11.27;;;1.20;;
18793;SDS011;29610;49.022;12.114;2022-07-01T09:47:31;10.57;;;1.33;;
18793;SDS011;29610;49.022;12.114;2022-07-01T09:50:02;10.47;;;1.40;;
18793;SDS011;29610;49.022;12.114;2022-07-01T09:52:32;10.90;;;1.50;;
18793;SDS011;29610;49.022;12.114;2022-07-01T09:55:03;10.47;;;1.50;;
18793;SDS011;29610;49.022;12.114;2022-07-01T09:57:34;10.47;;;1.37;;
18793;SDS011;29610;49.022;12.114;2022-07-01T10:00:03;10.40;;;1.50;;
18793;SDS011;29610;49.022;12.114;2022-07-01T10:02:36;10.87;;;1.80;;
18793;SDS011;29610;49.022;12.114;2022-07-01T10:05:07;15.33;;;1.70;;
18793;SDS011;29610;49.022;12.114;2022-07-01T10:07:43;10.57;;;1.80;;
18793;SDS011;29610;49.022;12.114;2022-07-01T10:10:34;10.93;;;1.40;;
18793;SDS011;29610;49.022;12.114;2022-07-01T10:13:16;13.50;;;1.70;;
18793;SDS011;29610;49.022;12.114;2022-07-01T10:15:51;10.47;;;1.70;;
18793;SDS011;29610;49.022;12.114;2022-07-01T10:18:25;13.90;;;1.80;;
18793;SDS011;29610;49.022;12.114;2022-07-01T10:20:56;10.97;;;1.93;;
18793;SDS011;29610;49.022;12.114;2022-07-01T10:23:28;10.53;;;1.70;;
18793;SDS011;29610;49.022;12.114;2022-07-01T10:26:05;10.70;;;1.60;;
18793;SDS011;29610;49.022;12.114;2022-07-01T10:28:40;10.50;;;1.40;;
18793;SDS011;29610;49.022;12.114;2022-07-01T10:31:12;10.53;;;1.60;;
18793;SDS011;29610;49.022;12.114;2022-07-01T10:33:48;15.20;;;1.73;;
18793;SDS011;29610;49.022;12.114;2022-07-01T10:36:25;11.00;;;1.97;;
18793;SDS011;29610;49.022;12.114;2022-07-01T10:39:14;11.37;;;1.67;;
18793;SDS011;29610;49.022;12.114;2022-07-01T10:41:57;11.93;;;1.47;;
18793;SDS011;29610;49.022;12.114;2022-07-01T10:45:05;12.20;;;1.70;;
18793;SDS011;29610;49.022;12.114;2022-07-01T10:47:36;11.37;;;2.00;;
18793;SDS011;29610;49.022;12.114;2022-07-01T10:50:10;10.83;;;1.90;;
18793;SDS011;29610;49.022;12.114;2022-07-01T10:52:59;10.60;;;1.80;;
18793;SDS011;29610;49.022;12.114;2022-07-01T10:55:36;10.90;;;1.97;;
18793;SDS011;29610;49.022;12.114;2022-07-01T10:58:05;12.63;;;2.00;;
18793;SDS011;29610;49.022;12.114;2022-07-01T11:00:35;10.50;;;1.80;;
18793;SDS011;29610;49.022;12.114;2022-07-01T11:03:09;10.90;;;2.00;;
18793;SDS011;29610;49.022;12.114;2022-07-01T11:05:52;13.73;;;2.17;;
18793;SDS011;29610;49.022;12.114;2022-07-01T11:08:23;10.77;;;1.83;;
18793;SDS011;29610;49.022;12.114;2022-07-01T11:10:58;11.03;;;1.80;;
18793;SDS011;29610;49.022;12.114;2022-07-01T11:13:34;11.60;;;2.23;;
18793;SDS011;29610;49.022;12.114;2022-07-01T11:16:06;15.83;;;1.90;;
18793;SDS011;29610;49.022;12.114;2022-07-01T11:18:37;11.20;;;2.07;;
18793;SDS011;29610;49.022;12.114;2022-07-01T11:21:09;11.80;;;2.10;;
18793;SDS011;29610;49.022;12.114;2022-07-01T11:23:38;11.07;;;1.87;;
18793;SDS011;29610;49.022;12.114;2022-07-01T11:26:20;10.87;;;1.90;;
18793;SDS011;29610;49.022;12.114;2022-07-01T11:28:50;11.80;;;1.70;;
18793;SDS011;29610;49.022;12.114;2022-07-01T11:31:32;11.20;;;1.90;;
18793;SDS011;29610;49.022;12.114;2022-07-01T11:34:02;11.40;;;1.90;;
18793;SDS011;29610;49.022;12.114;2022-07-01T11:36:35;11.23;;;2.23;;
18793;SDS011;29610;49.022;12.114;2022-07-01T11:39:28;12.10;;;1.63;;
18793;SDS011;29610;49.022;12.114;2022-07-01T11:42:00;11.00;;;1.70;;
18793;SDS011;29610;49.022;12.114;2022-07-01T11:44:33;10.50;;;1.40;;
18793;SDS011;29610;49.022;12.114;2022-07-01T11:47:04;10.40;;;1.60;;
18793;SDS011;29610;49.022;12.114;2022-07-01T11:49:42;10.67;;;1.80;;
18793;SDS011;29610;49.022;12.114;2022-07-01T11:52:14;11.10;;;1.80;;
18793;SDS011;29610;49.022;12.114;2022-07-01T11:54:44;11.30;;;1.87;;
18793;SDS011;29610;49.022;12.114;2022-07-01T11:57:16;10.60;;;1.53;;
18793;SDS011;29610;49.022;12.114;2022-07-01T11:59:46;10.73;;;1.73;;
18793;SDS011;29610;49.022;12.114;2022-07-01T12:02:19;11.50;;;2.20;;
18793;SDS011;29610;49.022;12.114;2022-07-01T12:04:51;11.10;;;2.00;;
18793;SDS011;29610;49.022;12.114;2022-07-01T12:07:21;10.50;;;1.60;;
18793;SDS011;29610;49.022;12.114;2022-07-01T12:09:50;10.43;;;1.60;;
18793;SDS011;29610;49.022;12.114;2022-07-01T12:12:20;10.70;;;1.50;;
18793;SDS011;29610;49.022;12.114;2022-07-01T12:14:53;10.60;;;1.63;;
18793;SDS011;29610;49.022;12.114;2022-07-01T12:17:23;11.10;;;1.40;;
18793;SDS011;29610;49.022;12.114;2022-07-01T12:19:54;11.10;;;1.50;;
18793;SDS011;29610;49.022;12.114;2022-07-01T12:22:25;18.73;;;1.67;;
18793;SDS011;29610;49.022;12.114;2022-07-01T12:25:04;13.07;;;2.20;;
18793;SDS011;29610;49.022;12.114;2022-07-01T12:27:35;11.00;;;1.50;;
18793;SDS011;29610;49.022;12.114;2022-07-01T12:30:06;11.50;;;1.63;;
18793;SDS011;29610;49.022;12.114;2022-07-01T12:32:38;10.80;;;1.20;;
18793;SDS011;29610;49.022;12.114;2022-07-01T12:35:09;10.90;;;1.40;;
18793;SDS011;29610;49.022;12.114;2022-07-01T12:37:59;10.90;;;1.63;;
18793;SDS011;29610;49.022;12.114;2022-07-01T12:40:28;10.63;;;1.50;;
18793;SDS011;29610;49.022;12.114;2022-07-01T12:42:57;10.30;;;1.20;;
18793;SDS011;29610;49.022;12.114;2022-07-01T12:45:26;11.77;;;1.20;;
18793;SDS011;29610;49.022;12.114;2022-07-01T12:47:56;15.00;;;1.57;;
18793;SDS011;29610;49.022;12.114;2022-07-01T12:50:25;11.67;;;1.20;;
18793;SDS011;29610;49.022;12.114;2022-07-01T12:52:59;11.07;;;1.80;;
18793;SDS011;29610;49.022;12.114;2022-07-01T12:55:31;9.97;;;1.20;;
18793;SDS011;29610;49.022;12.114;2022-07-01T12:58:03;10.37;;;1.13;;
18793;SDS011;29610;49.022;12.114;2022-07-01T13:00:35;12.20;;;1.27;;
18793;SDS011;29610;49.022;12.114;2022-07-01T13:03:07;10.97;;;1.20;;
18793;SDS011;29610;49.022;12.114;2022-07-01T13:05:37;10.20;;;1.20;;
18793;SDS011;29610;49.022;12.114;2022-07-01T13:08:09;10.40;;;1.33;;
18793;SDS011;29610;49.022;12.114;2022-07-01T13:10:38;10.17;;;1.27;;
18793;SDS011;29610;49.022;12.114;2022-07-01T13:13:07;10.03;;;1.10;;
18793;SDS011;29610;49.022;12.114;2022-07-01T13:15:39;10.20;;;1.20;;
18793;SDS011;29610;49.022;12.114;2022-07-01T13:18:09;10.17;;;1.23;;
18793;SDS011;29610;49.022;12.114;2022-07-01T13:20:40;10.20;;;1.33;;
18793;SDS011;29610;49.022;12.114;2022-07-01T13:23:11;9.93;;;1.20;;
18793;SDS011;29610;49.022;12.114;2022-07-01T13:25:40;9.97;;;1.20;;
18793;SDS011;29610;49.022;12.114;2022-07-01T13:28:09;13.80;;;1.10;;
18793;SDS011;29610;49.022;12.114;2022-07-01T13:30:37;9.90;;;1.07;;
18793;SDS011;29610;49.022;12.114;2022-07-01T13:33:06;11.73;;;1.60;;
18793;SDS011;29610;49.022;12.114;2022-07-01T13:35:34;10.07;;;1.30;;
18793;SDS011;29610;49.022;12.114;2022-07-01T13:38:03;11.97;;;1.33;;
18793;SDS011;29610;49.022;12.114;2022-07-01T13:40:33;10.47;;;1.40;;
18793;SDS011;29610;49.022;12.114;2022-07-01T13:43:02;10.83;;;1.60;;
18793;SDS011;29610;49.022;12.114;2022-07-01T13:45:30;10.60;;;1.40;;
18793;SDS011;29610;49.022;12.114;2022-07-01T13:47:59;10.13;;;1.30;;
18793;SDS011;29610;49.022;12.114;2022-07-01T13:50:30;10.90;;;1.40;;
18793;SDS011;29610;49.022;12.114;2022-07-01T13:52:59;10.40;;;1.37;;
18793;SDS011;29610;49.022;12.114;2022-07-01T13:55:28;10.40;;;1.40;;
18793;SDS011;29610;49.022;12.114;2022-07-01T13:57:57;12.20;;;1.57;;
18793;SDS011;29610;49.022;12.114;2022-07-01T14:00:26;10.30;;;1.20;;
18793;SDS011;29610;49.022;12.114;2022-07-01T14:02:55;11.23;;;1.30;;
18793;SDS011;29610;49.022;12.114;2022-07-01T14:05:23;12.23;;;1.60;;
18793;SDS011;29610;49.022;12.114;2022-07-01T14:07:52;10.30;;;1.37;;
18793;SDS011;29610;49.022;12.114;2022-07-01T14:10:21;10.50;;;1.53;;
18793;SDS011;29610;49.022;12.114;2022-07-01T14:12:49;11.10;;;1.40;;
18793;SDS011;29610;49.022;12.114;2022-07-01T14:15:19;10.60;;;1.30;;
18793;SDS011;29610;49.022;12.114;2022-07-01T14:17:48;11.27;;;1.37;;
18793;SDS011;29610;49.022;12.114;2022-07-01T14:20:18;11.97;;;1.80;;
18793;SDS011;29610;49.022;12.114;2022-07-01T14:22:46;11.60;;;1.80;;
18793;SDS011;29610;49.022;12.114;2022-07-01T14:25:15;10.90;;;1.57;;
18793;SDS011;29610;49.022;12.114;2022-07-01T14:27:43;10.90;;;1.60;;
18793;SDS011;29610;49.022;12.114;2022-07-01T14:30:12;12.30;;;1.77;;
18793;SDS011;29610;49.022;12.114;2022-07-01T14:32:42;10.87;;;1.80;;
18793;SDS011;29610;49.022;12.114;2022-07-01T14:35:11;10.93;;;1.70;;
18793;SDS011;29610;49.022;12.114;2022-07-01T14:37:39;11.00;;;1.57;;
18793;SDS011;29610;49.022;12.114;2022-07-01T14:40:10;10.97;;;1.33;;
18793;SDS011;29610;49.022;12.114;2022-07-01T14:42:40;11.53;;;1.40;;